createdAt,value
2023-02-11T00:01:35.292Z,0.20
2023-02-11T00:04:04.694Z,0.10
2023-02-11T00:06:34.100Z,0.10
2023-02-11T00:09:02.273Z,0.20
2023-02-11T00:11:30.506Z,0.35
2023-02-11T00:13:59.962Z,0.10
2023-02-11T00:16:28.063Z,0.20
2023-02-11T00:18:55.951Z,0.28
2023-02-11T00:21:25.547Z,0.15
2023-02-11T00:23:54.976Z,0.20
2023-02-11T00:26:25.880Z,0.10
2023-02-11T00:28:54.059Z,0.20
2023-02-11T00:31:23.367Z,0.20
2023-02-11T00:33:51.160Z,0.20
2023-02-11T00:36:25.287Z,0.20
2023-02-11T00:38:54.666Z,0.10
2023-02-11T00:41:22.844Z,0.20
2023-02-11T00:43:50.973Z,0.30
2023-02-11T00:46:20.093Z,0.20
2023-02-11T00:48:48.030Z,0.15
2023-02-11T00:51:15.635Z,0.30
2023-02-11T00:53:43.254Z,0.10
2023-02-11T00:56:10.692Z,0.22
2023-02-11T00:58:38.289Z,0.30
2023-02-11T01:01:05.920Z,0.20
2023-02-11T01:03:33.631Z,0.15
2023-02-11T01:06:01.116Z,0.10
2023-02-11T01:08:28.674Z,0.10
2023-02-11T01:11:03.500Z,0.20
2023-02-11T01:13:33.465Z,0.20
2023-02-11T01:16:01.225Z,0.30
2023-02-11T01:18:29.168Z,0.30
2023-02-11T01:20:56.911Z,0.20
2023-02-11T01:23:24.379Z,0.30
2023-02-11T01:25:52.678Z,0.10
2023-02-11T01:28:23.223Z,0.30
2023-02-11T01:30:51.487Z,0.30
2023-02-11T01:33:18.990Z,0.40
2023-02-11T01:35:46.618Z,0.40
2023-02-11T01:38:20.823Z,0.30
2023-02-11T01:40:59.752Z,0.30
2023-02-11T01:43:30.668Z,0.30
2023-02-11T01:46:20.138Z,0.30
2023-02-11T01:49:12.715Z,0.38
2023-02-11T01:51:44.090Z,0.40
2023-02-11T01:54:34.603Z,0.25
2023-02-11T01:57:24.410Z,0.20
2023-02-11T02:00:01.399Z,0.30
2023-02-11T02:02:40.902Z,0.28
2023-02-11T02:05:37.331Z,0.10
2023-02-11T02:08:23.328Z,0.20
2023-02-11T02:10:56.370Z,0.40
2023-02-11T02:13:25.813Z,0.43
2023-02-11T02:15:56.167Z,0.30
2023-02-11T02:18:34.190Z,0.30
2023-02-11T02:21:20.208Z,0.30
2023-02-11T02:24:15.413Z,0.20
2023-02-11T02:27:34.244Z,0.20
2023-02-11T02:30:32.171Z,0.20
2023-02-11T02:33:22.938Z,0.13
2023-02-11T02:36:00.406Z,0.13
2023-02-11T02:38:33.218Z,0.30
2023-02-11T02:41:08.509Z,0.10
2023-02-11T02:43:39.969Z,0.20
2023-02-11T02:46:29.121Z,0.20
2023-02-11T02:48:58.085Z,0.20
2023-02-11T02:51:51.285Z,0.30
2023-02-11T02:54:51.811Z,0.13
2023-02-11T02:57:28.020Z,0.10
2023-02-11T03:00:11.038Z,0.20
2023-02-11T03:02:46.170Z,0.20
2023-02-11T03:05:20.079Z,0.10
2023-02-11T03:07:58.690Z,0.20
2023-02-11T03:10:30.558Z,0.10
2023-02-11T03:12:59.338Z,0.20
2023-02-11T03:15:30.903Z,0.25
2023-02-11T03:18:01.997Z,0.20
2023-02-11T03:20:33.076Z,0.20
2023-02-11T03:23:31.927Z,0.20
2023-02-11T03:26:05.607Z,0.30
2023-02-11T03:28:42.809Z,0.30
2023-02-11T03:31:27.139Z,0.20
2023-02-11T03:34:06.510Z,0.38
2023-02-11T03:36:49.971Z,0.20
2023-02-11T03:39:25.579Z,0.28
2023-02-11T03:41:56.309Z,0.30
2023-02-11T03:44:30.833Z,0.32
2023-02-11T03:46:59.094Z,0.20
2023-02-11T03:49:28.209Z,0.30
2023-02-11T03:51:57.709Z,0.17
2023-02-11T03:54:30.360Z,0.45
2023-02-11T03:57:00.874Z,0.10
2023-02-11T03:59:28.836Z,0.20
2023-02-11T04:01:57.751Z,0.20
2023-02-11T04:04:25.794Z,0.22
2023-02-11T04:06:53.262Z,0.20
2023-02-11T04:09:21.331Z,0.20
2023-02-11T04:11:48.792Z,0.10
2023-02-11T04:14:16.302Z,0.20
2023-02-11T04:16:43.838Z,0.25
2023-02-11T04:19:11.302Z,0.20
2023-02-11T04:21:38.810Z,0.32
2023-02-11T04:24:06.471Z,0.22
2023-02-11T04:26:33.884Z,0.35
2023-02-11T04:29:01.286Z,0.30
2023-02-11T04:31:29.071Z,0.20
2023-02-11T04:33:56.977Z,0.30
2023-02-11T04:36:24.513Z,0.20
2023-02-11T04:38:51.990Z,0.20
2023-02-11T04:41:19.492Z,0.28
2023-02-11T04:43:46.949Z,0.20
2023-02-11T04:46:14.586Z,0.30
2023-02-11T04:48:42.108Z,0.20
2023-02-11T04:51:09.833Z,0.40
2023-02-11T04:53:37.289Z,0.20
2023-02-11T04:56:04.990Z,0.20
2023-02-11T04:58:32.465Z,0.20
2023-02-11T05:01:14.108Z,0.25
2023-02-11T05:03:42.750Z,0.20
2023-02-11T05:06:11.514Z,0.20
2023-02-11T05:08:39.506Z,0.10
2023-02-11T05:11:08.226Z,0.20
2023-02-11T05:13:35.798Z,0.30
2023-02-11T05:16:03.274Z,0.22
2023-02-11T05:18:30.999Z,0.30
2023-02-11T05:20:58.496Z,0.20
2023-02-11T05:23:25.978Z,0.30
2023-02-11T05:25:53.438Z,0.20
2023-02-11T05:28:20.990Z,0.25
2023-02-11T05:30:48.503Z,0.13
2023-02-11T05:33:16.034Z,0.20
2023-02-11T05:35:43.446Z,0.20
2023-02-11T05:38:10.948Z,0.10
2023-02-11T05:40:38.490Z,0.10
2023-02-11T05:43:06.060Z,0.13
2023-02-11T05:45:33.700Z,0.15
2023-02-11T05:48:01.231Z,0.20
2023-02-11T05:50:28.691Z,0.20
2023-02-11T05:52:56.353Z,0.17
2023-02-11T05:55:24.061Z,0.20
2023-02-11T05:57:51.557Z,0.20
2023-02-11T06:00:19.384Z,0.10
2023-02-11T06:02:46.921Z,0.20
2023-02-11T06:05:14.450Z,0.20
2023-02-11T06:07:42.178Z,0.20
2023-02-11T06:10:10.247Z,0.20
2023-02-11T06:12:38.648Z,0.25
2023-02-11T06:15:06.734Z,0.35
2023-02-11T06:17:34.278Z,0.30
2023-02-11T06:20:02.880Z,0.30
2023-02-11T06:22:30.630Z,0.30
2023-02-11T06:25:01.800Z,0.40
2023-02-11T06:27:30.133Z,0.20
2023-02-11T06:29:57.725Z,0.28
2023-02-11T06:35:14.834Z,0.30
2023-02-11T06:37:42.511Z,0.47
2023-02-11T06:40:11.729Z,0.50
2023-02-11T06:42:39.622Z,0.28
2023-02-11T06:45:09.618Z,0.30
2023-02-11T06:47:37.828Z,0.45
2023-02-11T06:50:07.916Z,0.50
2023-02-11T06:52:37.801Z,0.50
2023-02-11T06:55:05.560Z,0.30
2023-02-11T06:57:33.438Z,0.40
2023-02-11T07:00:00.979Z,0.30
2023-02-11T07:02:28.602Z,0.35
2023-02-11T07:04:56.126Z,0.47
2023-02-11T07:07:23.604Z,0.30
2023-02-11T07:09:51.110Z,0.35
2023-02-11T07:12:18.532Z,0.40
2023-02-11T07:14:46.123Z,0.30
2023-02-11T07:17:13.551Z,0.30
2023-02-11T07:19:41.139Z,0.55
2023-02-11T07:22:08.589Z,0.20
2023-02-11T07:24:36.086Z,0.30
2023-02-11T07:27:03.533Z,0.20
2023-02-11T07:29:31.107Z,0.40
2023-02-11T07:31:58.576Z,0.50
2023-02-11T07:34:26.112Z,0.55
2023-02-11T07:36:53.567Z,0.52
2023-02-11T07:39:22.579Z,0.40
2023-02-11T07:41:50.035Z,0.52
2023-02-11T07:44:18.719Z,0.60
2023-02-11T07:46:47.867Z,0.47
2023-02-11T07:49:16.227Z,0.70
2023-02-11T07:51:43.678Z,0.50
2023-02-11T07:54:12.339Z,0.50
2023-02-11T07:56:39.819Z,0.60
2023-02-11T07:59:07.282Z,0.73
2023-02-11T08:01:35.038Z,0.55
2023-02-11T08:04:03.687Z,0.47
2023-02-11T08:06:33.596Z,0.60
2023-02-11T08:09:06.635Z,0.60
2023-02-11T08:11:34.199Z,0.40
2023-02-11T08:14:01.951Z,1.38
2023-02-11T08:16:32.520Z,1.10
2023-02-11T08:19:02.547Z,1.10
2023-02-11T08:21:30.185Z,0.95
2023-02-11T08:23:57.819Z,1.10
2023-02-11T08:26:28.822Z,0.68
2023-02-11T08:28:58.049Z,0.98
2023-02-11T08:31:28.588Z,1.10
2023-02-11T08:33:58.205Z,0.80
2023-02-11T08:36:29.290Z,0.85
2023-02-11T08:39:16.033Z,0.80
2023-02-11T08:41:49.105Z,0.80
2023-02-11T08:44:20.634Z,0.73
2023-02-11T08:46:49.020Z,0.40
2023-02-11T08:49:16.991Z,0.70
2023-02-11T08:51:44.812Z,1.17
2023-02-11T08:54:14.352Z,0.50
2023-02-11T08:56:42.439Z,0.60
2023-02-11T08:59:14.137Z,0.82
2023-02-11T09:01:41.865Z,0.80
2023-02-11T09:04:10.618Z,0.85
2023-02-11T09:06:38.072Z,1.10
2023-02-11T09:09:05.648Z,1.52
2023-02-11T09:11:36.734Z,1.10
2023-02-11T09:14:05.051Z,1.30
2023-02-11T09:16:35.269Z,0.95
2023-02-11T09:19:05.041Z,1.20
2023-02-11T09:21:32.601Z,0.90
2023-02-11T09:24:00.191Z,0.85
2023-02-11T09:26:30.192Z,1.10
2023-02-11T09:28:57.966Z,1.25
2023-02-11T09:31:27.478Z,1.30
2023-02-11T09:33:57.846Z,0.93
2023-02-11T09:36:28.959Z,0.80
2023-02-11T09:39:02.307Z,0.90
2023-02-11T09:41:48.490Z,0.80
2023-02-11T09:44:25.954Z,0.80
2023-02-11T09:46:59.743Z,0.82
2023-02-11T09:49:48.827Z,0.90
2023-02-11T09:52:44.332Z,0.82
2023-02-11T09:55:32.362Z,0.82
2023-02-11T09:58:03.363Z,0.90
2023-02-11T10:00:42.004Z,0.70
2023-02-11T10:03:27.535Z,0.80
2023-02-11T10:06:10.094Z,1.00
2023-02-11T10:08:40.536Z,0.80
2023-02-11T10:11:40.977Z,0.60
2023-02-11T10:14:57.405Z,0.75
2023-02-11T10:17:44.132Z,0.93
2023-02-11T10:20:21.196Z,0.73
2023-02-11T10:22:59.014Z,0.60
2023-02-11T10:25:41.583Z,0.50
2023-02-11T10:28:17.101Z,0.60
2023-02-11T10:31:02.131Z,0.60
2023-02-11T10:33:44.648Z,0.40
2023-02-11T10:36:14.250Z,0.45
2023-02-11T10:38:41.890Z,0.60
2023-02-11T10:41:17.076Z,0.40
2023-02-11T10:43:44.902Z,0.30
2023-02-11T10:46:22.149Z,0.35
2023-02-11T10:48:53.391Z,0.43
2023-02-11T10:51:39.533Z,0.50
2023-02-11T10:54:08.408Z,0.30
2023-02-11T10:57:02.245Z,0.30
2023-02-11T10:59:33.176Z,0.25
2023-02-11T11:02:07.978Z,0.40
2023-02-11T11:04:45.476Z,0.60
2023-02-11T11:07:25.241Z,0.70
2023-02-11T11:09:55.914Z,0.45
2023-02-11T11:12:28.263Z,0.50
2023-02-11T11:15:16.561Z,0.50
2023-02-11T11:17:44.432Z,0.60
2023-02-11T11:20:24.015Z,0.60
2023-02-11T11:23:07.430Z,0.68
2023-02-11T11:25:37.841Z,0.50
2023-02-11T11:28:05.677Z,0.30
2023-02-11T11:30:43.349Z,0.40
2023-02-11T11:33:25.424Z,0.40
2023-02-11T11:35:57.995Z,0.50
2023-02-11T11:38:27.206Z,0.50
2023-02-11T11:41:31.318Z,0.70
2023-02-11T11:44:22.447Z,0.43
2023-02-11T11:47:10.624Z,0.50
2023-02-11T11:49:48.938Z,0.77
2023-02-11T11:52:23.836Z,0.70
2023-02-11T11:55:15.587Z,0.40
2023-02-11T11:57:44.889Z,0.50
2023-02-11T12:00:24.019Z,0.45
2023-02-11T12:03:00.398Z,0.50
2023-02-11T12:05:58.261Z,0.40
2023-02-11T12:08:37.794Z,0.40
2023-02-11T12:11:25.676Z,0.60
2023-02-11T12:14:16.110Z,0.30
2023-02-11T12:17:01.519Z,0.50
2023-02-11T12:19:50.777Z,0.40
2023-02-11T12:22:40.764Z,0.50
2023-02-11T12:25:46.827Z,0.38
2023-02-11T12:28:31.597Z,0.38
2023-02-11T12:31:15.177Z,0.20
2023-02-11T12:33:45.472Z,0.60
2023-02-11T12:36:47.302Z,0.47
2023-02-11T12:39:34.017Z,0.55
2023-02-11T12:42:32.407Z,0.80
2023-02-11T12:45:21.059Z,0.50
2023-02-11T12:48:06.271Z,0.50
2023-02-11T12:50:36.738Z,0.73
2023-02-11T12:53:32.135Z,0.70
2023-02-11T12:56:12.773Z,0.60
2023-02-11T12:58:45.282Z,0.60
2023-02-11T13:01:27.216Z,0.60
2023-02-11T13:04:22.138Z,0.60
2023-02-11T13:06:56.061Z,0.80
2023-02-11T13:09:33.764Z,0.60
2023-02-11T13:12:23.119Z,0.73
2023-02-11T13:14:54.436Z,0.63
2023-02-11T13:17:36.953Z,0.88
2023-02-11T13:20:21.326Z,0.60
2023-02-11T13:23:38.145Z,0.60
2023-02-11T13:26:19.625Z,0.45
2023-02-11T13:29:11.674Z,0.52
2023-02-11T13:31:39.444Z,0.50
2023-02-11T13:34:26.412Z,0.40
2023-02-11T13:36:57.993Z,0.68
2023-02-11T13:39:25.699Z,0.50
2023-02-11T13:42:03.214Z,0.60
2023-02-11T13:44:34.835Z,0.55
2023-02-11T13:47:05.449Z,0.30
2023-02-11T13:49:42.124Z,0.50
2023-02-11T13:52:27.489Z,0.40
2023-02-11T13:54:58.258Z,0.30
2023-02-11T13:57:31.138Z,0.60
2023-02-11T14:00:09.676Z,0.40
2023-02-11T14:02:56.624Z,0.40
2023-02-11T14:05:45.984Z,0.40
2023-02-11T14:08:41.222Z,0.40
2023-02-11T14:11:24.080Z,0.40
2023-02-11T14:13:51.641Z,0.30
2023-02-11T14:16:37.020Z,0.47
2023-02-11T14:19:06.782Z,0.30
2023-02-11T14:21:40.868Z,0.22
2023-02-11T14:24:14.505Z,0.28
2023-02-11T14:26:51.672Z,0.20
2023-02-11T14:29:36.789Z,0.30
2023-02-11T14:32:41.880Z,0.40
2023-02-11T14:35:18.462Z,0.50
2023-02-11T14:38:00.455Z,0.40
2023-02-11T14:40:58.383Z,0.28
2023-02-11T14:43:31.921Z,0.35
2023-02-11T14:46:01.607Z,0.32
2023-02-11T14:48:35.034Z,0.40
2023-02-11T14:51:11.244Z,0.30
2023-02-11T14:53:44.450Z,0.30
2023-02-11T14:56:26.418Z,0.30
2023-02-11T14:58:55.622Z,0.20
2023-02-11T15:01:34.098Z,0.32
2023-02-11T15:04:03.744Z,0.30
2023-02-11T15:06:38.224Z,0.30
2023-02-11T15:09:07.848Z,0.40
2023-02-11T15:11:40.927Z,0.60
2023-02-11T15:14:30.914Z,0.80
2023-02-11T15:17:08.137Z,0.52
2023-02-11T15:19:44.159Z,0.70
2023-02-11T15:25:08.250Z,0.65
2023-02-11T15:27:43.868Z,0.50
2023-02-11T15:30:23.353Z,0.80
2023-02-11T15:32:58.052Z,0.77
2023-02-11T15:35:38.068Z,0.70
2023-02-11T15:38:06.795Z,0.70
2023-02-11T15:40:36.662Z,0.40
2023-02-11T15:43:06.590Z,0.57
2023-02-11T15:45:36.225Z,0.63
2023-02-11T15:48:14.046Z,0.40
2023-02-11T15:50:43.099Z,0.43
2023-02-11T15:53:32.922Z,0.65
2023-02-11T15:56:08.322Z,0.43
2023-02-11T15:58:40.882Z,0.40
2023-02-11T16:01:09.534Z,0.55
2023-02-11T16:03:37.070Z,0.63
2023-02-11T16:06:24.971Z,0.90
2023-02-11T16:09:08.952Z,0.50
2023-02-11T16:11:53.944Z,0.90
2023-02-11T16:14:27.564Z,0.73
2023-02-11T16:17:10.800Z,0.70
2023-02-11T16:19:45.852Z,1.00
2023-02-11T16:22:19.850Z,0.90
2023-02-11T16:24:49.983Z,0.90
2023-02-11T16:27:25.823Z,0.80
2023-02-11T16:29:53.823Z,0.70
2023-02-11T16:32:27.073Z,0.60
2023-02-11T16:34:58.359Z,0.80
2023-02-11T16:37:26.260Z,0.55
2023-02-11T16:39:55.037Z,0.55
2023-02-11T16:42:23.421Z,0.65
2023-02-11T16:44:50.997Z,0.70
2023-02-11T16:47:27.102Z,0.60
2023-02-11T16:49:56.252Z,0.73
2023-02-11T16:52:24.385Z,1.02
2023-02-11T16:54:52.027Z,1.02
2023-02-11T16:57:28.894Z,1.17
2023-02-11T17:00:01.680Z,0.95
2023-02-11T17:02:33.460Z,1.00
2023-02-11T17:05:03.956Z,1.00
2023-02-11T17:07:32.002Z,1.02
2023-02-11T17:09:59.543Z,1.23
2023-02-11T17:12:27.135Z,1.05
2023-02-11T17:14:54.711Z,1.23
2023-02-11T17:17:23.826Z,1.00
2023-02-11T17:19:51.653Z,1.00
2023-02-11T17:22:19.407Z,0.90
2023-02-11T17:24:46.889Z,1.20
2023-02-11T17:27:15.335Z,1.60
2023-02-11T17:29:45.604Z,1.30
2023-02-11T17:32:13.339Z,0.93
2023-02-11T17:34:40.952Z,1.10
2023-02-11T17:37:11.504Z,1.10
2023-02-11T17:39:40.157Z,1.30
2023-02-11T17:42:08.673Z,0.85
2023-02-11T17:44:36.508Z,0.90
2023-02-11T17:47:04.099Z,0.85
2023-02-11T17:49:31.754Z,1.73
2023-02-11T17:51:59.254Z,1.10
2023-02-11T17:54:26.921Z,1.30
2023-02-11T17:56:57.142Z,1.20
2023-02-11T17:59:26.561Z,1.02
2023-02-11T18:01:54.005Z,2.50
2023-02-11T18:04:21.728Z,2.90
2023-02-11T18:06:50.377Z,2.20
2023-02-11T18:09:17.975Z,1.52
2023-02-11T18:11:46.048Z,1.60
2023-02-11T18:14:13.596Z,1.70
2023-02-11T18:16:43.620Z,1.80
2023-02-11T18:19:12.276Z,1.75
2023-02-11T18:21:40.000Z,1.83
2023-02-11T18:24:09.527Z,2.10
2023-02-11T18:26:37.028Z,1.95
2023-02-11T18:29:06.258Z,2.10
2023-02-11T18:31:35.479Z,2.33
2023-02-11T18:34:05.702Z,1.50
2023-02-11T18:36:33.929Z,1.63
2023-02-11T18:39:01.537Z,1.30
2023-02-11T18:41:29.109Z,1.30
2023-02-11T18:43:58.718Z,1.60
2023-02-11T18:46:26.483Z,1.35
2023-02-11T18:48:56.256Z,1.27
2023-02-11T18:51:24.566Z,2.15
2023-02-11T18:53:52.686Z,1.58
2023-02-11T18:56:22.898Z,1.55
2023-02-11T18:58:51.462Z,1.58
2023-02-11T19:01:24.419Z,1.75
2023-02-11T19:03:52.341Z,1.50
2023-02-11T19:06:28.433Z,1.80
2023-02-11T19:11:47.722Z,1.80
2023-02-11T19:14:17.285Z,1.60
2023-02-11T19:16:46.340Z,1.70
2023-02-11T19:19:14.356Z,2.22
2023-02-11T19:21:43.790Z,1.70
2023-02-11T19:24:13.357Z,1.40
2023-02-11T19:26:40.918Z,1.85
2023-02-11T19:29:08.832Z,1.48
2023-02-11T19:40:31.773Z,1.80
2023-02-11T19:42:59.528Z,1.85
2023-02-11T19:45:27.082Z,1.50
2023-02-11T19:47:58.214Z,1.63
2023-02-11T19:50:26.130Z,2.50
2023-02-11T19:52:53.561Z,2.30
2023-02-11T19:55:21.433Z,1.60
2023-02-11T19:57:48.849Z,1.45
2023-02-11T20:00:16.667Z,2.00
2023-02-11T20:02:44.284Z,2.50
2023-02-11T20:05:11.809Z,2.38
2023-02-11T20:07:39.294Z,2.22
2023-02-11T20:10:07.780Z,2.15
2023-02-11T20:12:37.434Z,1.92
2023-02-11T20:15:05.150Z,2.10
2023-02-11T20:17:32.616Z,1.80
2023-02-11T20:20:00.166Z,1.90
2023-02-11T20:22:27.619Z,1.90
2023-02-11T20:24:55.073Z,1.73
2023-02-11T20:27:22.544Z,1.77
2023-02-11T20:29:50.148Z,2.20
2023-02-11T20:32:17.573Z,1.60
2023-02-11T20:34:45.096Z,1.73
2023-02-11T20:37:12.665Z,1.98
2023-02-11T20:39:41.973Z,1.85
2023-02-11T20:42:11.659Z,1.55
2023-02-11T20:44:39.165Z,1.90
2023-02-11T20:48:58.267Z,2.00
2023-02-11T20:51:30.038Z,1.85
2023-02-11T20:53:58.405Z,2.00
2023-02-11T20:56:33.069Z,1.83
2023-02-11T20:59:02.533Z,2.17
2023-02-11T21:01:33.989Z,2.20
2023-02-11T21:04:05.516Z,2.28
2023-02-11T21:06:39.255Z,2.22
2023-02-11T21:09:08.777Z,2.38
2023-02-11T21:11:36.218Z,2.20
2023-02-11T21:14:04.100Z,1.77
2023-02-11T21:16:32.239Z,2.53
2023-02-11T21:19:00.677Z,1.67
2023-02-11T21:21:28.102Z,1.65
2023-02-11T21:23:56.212Z,1.50
2023-02-11T21:26:23.682Z,1.80
2023-02-11T21:28:52.206Z,1.77
2023-02-11T21:31:23.364Z,2.22
2023-02-11T21:33:51.717Z,1.40
2023-02-11T21:36:19.503Z,1.60
2023-02-11T21:38:47.065Z,1.67
2023-02-11T21:41:14.751Z,1.38
2023-02-11T21:43:42.367Z,1.73
2023-02-11T21:46:12.946Z,2.00
2023-02-11T21:48:40.560Z,1.55
2023-02-11T21:51:11.841Z,1.95
2023-02-11T21:53:39.584Z,1.80
2023-02-11T21:56:10.093Z,1.65
2023-02-11T21:58:37.721Z,2.00
2023-02-11T22:01:16.278Z,2.00
2023-02-11T22:03:44.053Z,2.47
2023-02-11T22:06:23.393Z,2.45
2023-02-11T22:08:51.252Z,2.60
2023-02-11T22:11:19.781Z,2.65
2023-02-11T22:13:47.654Z,2.17
2023-02-11T22:16:16.721Z,2.58
2023-02-11T22:18:47.014Z,2.60
2023-02-11T22:21:17.010Z,2.80
2023-02-11T22:23:45.674Z,2.78
2023-02-11T22:26:24.828Z,2.97
2023-02-11T22:28:53.662Z,3.33
2023-02-11T22:31:24.372Z,3.17
2023-02-11T22:33:52.233Z,2.63
2023-02-11T22:36:28.976Z,2.90
2023-02-11T22:38:59.887Z,2.67
2023-02-11T22:41:27.404Z,2.60
2023-02-11T22:43:55.119Z,3.03
2023-02-11T22:46:23.138Z,2.50
2023-02-11T22:48:51.389Z,2.20
2023-02-11T22:51:27.370Z,2.47
2023-02-11T22:56:24.171Z,1.92
2023-02-11T22:58:53.370Z,2.10
2023-02-11T23:01:20.992Z,2.03
2023-02-11T23:03:48.647Z,1.95
2023-02-11T23:06:16.529Z,2.03
2023-02-11T23:08:44.222Z,1.83
2023-02-11T23:11:25.094Z,2.15
2023-02-11T23:13:54.055Z,2.15
2023-02-11T23:16:25.245Z,1.50
2023-02-11T23:18:53.254Z,1.70
2023-02-11T23:21:25.268Z,1.73
2023-02-11T23:23:58.525Z,1.90
2023-02-11T23:26:26.459Z,1.80
2023-02-11T23:28:54.601Z,1.70
2023-02-11T23:31:34.057Z,1.83
2023-02-11T23:34:01.968Z,1.67
2023-02-11T23:36:29.975Z,1.48
2023-02-11T23:38:57.474Z,1.70
2023-02-11T23:41:25.221Z,2.03
2023-02-11T23:43:55.367Z,1.48
2023-02-11T23:46:24.355Z,1.50
2023-02-11T23:48:53.110Z,1.50
2023-02-11T23:51:20.856Z,1.70
2023-02-11T23:53:51.493Z,1.85
2023-02-11T23:56:22.243Z,1.80
2023-02-11T23:58:52.467Z,2.20
